sensor_id;sensor_type;location;lat;lon;timestamp;P1;durP1;ratioP1;P2;durP2;ratioP2
19207;SDS011;9737;59.466;18.036;2022-07-01T00:00:05;27.42;;;18.17;;
19207;SDS011;9737;59.466;18.036;2022-07-01T00:02:34;24.60;;;18.30;;
19207;SDS011;9737;59.466;18.036;2022-07-01T00:05:02;28.08;;;18.17;;
19207;SDS011;9737;59.466;18.036;2022-07-01T00:07:32;26.92;;;18.13;;
19207;SDS011;9737;59.466;18.036;2022-07-01T00:10:01;25.48;;;17.13;;
19207;SDS011;9737;59.466;18.036;2022-07-01T00:12:29;27.50;;;18.10;;
19207;SDS011;9737;59.466;18.036;2022-07-01T00:15:00;25.90;;;18.35;;
19207;SDS011;9737;59.466;18.036;2022-07-01T00:17:29;25.38;;;17.48;;
19207;SDS011;9737;59.466;18.036;2022-07-01T00:19:57;25.05;;;17.58;;
19207;SDS011;9737;59.466;18.036;2022-07-01T00:22:26;27.48;;;18.23;;
19207;SDS011;9737;59.466;18.036;2022-07-01T00:24:56;26.30;;;18.45;;
19207;SDS011;9737;59.466;18.036;2022-07-01T00:27:25;28.73;;;18.23;;
19207;SDS011;9737;59.466;18.036;2022-07-01T00:29:54;29.67;;;18.35;;
19207;SDS011;9737;59.466;18.036;2022-07-01T00:32:22;25.55;;;17.02;;
19207;SDS011;9737;59.466;18.036;2022-07-01T00:34:51;23.00;;;17.23;;
19207;SDS011;9737;59.466;18.036;2022-07-01T00:37:20;26.02;;;16.92;;
19207;SDS011;9737;59.466;18.036;2022-07-01T00:39:48;27.05;;;18.13;;
19207;SDS011;9737;59.466;18.036;2022-07-01T00:42:18;26.67;;;17.38;;
19207;SDS011;9737;59.466;18.036;2022-07-01T00:44:46;24.20;;;16.60;;
19207;SDS011;9737;59.466;18.036;2022-07-01T00:47:14;22.75;;;16.35;;
19207;SDS011;9737;59.466;18.036;2022-07-01T00:49:43;24.65;;;17.58;;
19207;SDS011;9737;59.466;18.036;2022-07-01T00:52:11;28.15;;;17.85;;
19207;SDS011;9737;59.466;18.036;2022-07-01T00:54:40;26.75;;;17.33;;
19207;SDS011;9737;59.466;18.036;2022-07-01T00:57:08;25.98;;;16.95;;
19207;SDS011;9737;59.466;18.036;2022-07-01T00:59:39;25.25;;;17.73;;
19207;SDS011;9737;59.466;18.036;2022-07-01T01:02:08;25.42;;;18.88;;
19207;SDS011;9737;59.466;18.036;2022-07-01T01:04:37;29.08;;;19.30;;
19207;SDS011;9737;59.466;18.036;2022-07-01T01:07:06;28.73;;;18.35;;
19207;SDS011;9737;59.466;18.036;2022-07-01T01:09:34;26.33;;;18.92;;
19207;SDS011;9737;59.466;18.036;2022-07-01T01:12:03;30.13;;;19.63;;
19207;SDS011;9737;59.466;18.036;2022-07-01T01:14:43;28.08;;;19.17;;
19207;SDS011;9737;59.466;18.036;2022-07-01T01:17:13;28.63;;;19.00;;
19207;SDS011;9737;59.466;18.036;2022-07-01T01:19:41;26.38;;;19.08;;
19207;SDS011;9737;59.466;18.036;2022-07-01T01:22:13;33.13;;;20.30;;
19207;SDS011;9737;59.466;18.036;2022-07-01T01:24:43;30.52;;;20.77;;
19207;SDS011;9737;59.466;18.036;2022-07-01T01:27:12;30.02;;;18.98;;
19207;SDS011;9737;59.466;18.036;2022-07-01T01:29:40;28.63;;;19.73;;
19207;SDS011;9737;59.466;18.036;2022-07-01T01:32:09;27.88;;;19.15;;
19207;SDS011;9737;59.466;18.036;2022-07-01T01:34:38;28.52;;;19.00;;
19207;SDS011;9737;59.466;18.036;2022-07-01T01:37:09;31.52;;;20.48;;
19207;SDS011;9737;59.466;18.036;2022-07-01T01:39:39;30.25;;;19.88;;
19207;SDS011;9737;59.466;18.036;2022-07-01T01:42:07;32.38;;;21.15;;
19207;SDS011;9737;59.466;18.036;2022-07-01T01:44:36;30.25;;;19.35;;
19207;SDS011;9737;59.466;18.036;2022-07-01T01:47:06;32.70;;;21.60;;
19207;SDS011;9737;59.466;18.036;2022-07-01T01:49:35;29.92;;;20.55;;
19207;SDS011;9737;59.466;18.036;2022-07-01T01:52:03;31.77;;;20.80;;
19207;SDS011;9737;59.466;18.036;2022-07-01T01:54:33;32.85;;;21.50;;
19207;SDS011;9737;59.466;18.036;2022-07-01T01:57:05;31.05;;;20.58;;
19207;SDS011;9737;59.466;18.036;2022-07-01T01:59:33;31.70;;;19.20;;
19207;SDS011;9737;59.466;18.036;2022-07-01T02:02:01;31.70;;;21.85;;
19207;SDS011;9737;59.466;18.036;2022-07-01T02:04:30;31.35;;;21.33;;
19207;SDS011;9737;59.466;18.036;2022-07-01T02:07:00;28.27;;;20.10;;
19207;SDS011;9737;59.466;18.036;2022-07-01T02:09:28;30.67;;;20.25;;
19207;SDS011;9737;59.466;18.036;2022-07-01T02:11:56;33.33;;;21.38;;
19207;SDS011;9737;59.466;18.036;2022-07-01T02:14:26;31.45;;;20.60;;
19207;SDS011;9737;59.466;18.036;2022-07-01T02:16:55;33.63;;;22.25;;
19207;SDS011;9737;59.466;18.036;2022-07-01T02:19:23;39.42;;;22.42;;
19207;SDS011;9737;59.466;18.036;2022-07-01T02:21:51;32.08;;;20.90;;
19207;SDS011;9737;59.466;18.036;2022-07-01T02:24:19;40.83;;;22.83;;
19207;SDS011;9737;59.466;18.036;2022-07-01T02:26:47;36.72;;;23.63;;
19207;SDS011;9737;59.466;18.036;2022-07-01T02:29:16;37.47;;;23.70;;
19207;SDS011;9737;59.466;18.036;2022-07-01T02:31:46;35.88;;;23.17;;
19207;SDS011;9737;59.466;18.036;2022-07-01T02:34:15;40.47;;;23.50;;
19207;SDS011;9737;59.466;18.036;2022-07-01T02:36:43;39.90;;;23.92;;
19207;SDS011;9737;59.466;18.036;2022-07-01T02:39:11;35.25;;;22.63;;
19207;SDS011;9737;59.466;18.036;2022-07-01T02:41:38;36.78;;;23.60;;
19207;SDS011;9737;59.466;18.036;2022-07-01T02:44:20;40.22;;;24.05;;
19207;SDS011;9737;59.466;18.036;2022-07-01T02:46:50;41.53;;;23.23;;
19207;SDS011;9737;59.466;18.036;2022-07-01T02:49:19;41.22;;;24.35;;
19207;SDS011;9737;59.466;18.036;2022-07-01T02:51:48;46.70;;;24.80;;
19207;SDS011;9737;59.466;18.036;2022-07-01T02:54:16;38.55;;;23.83;;
19207;SDS011;9737;59.466;18.036;2022-07-01T02:56:44;33.13;;;23.00;;
19207;SDS011;9737;59.466;18.036;2022-07-01T02:59:12;40.53;;;24.30;;
19207;SDS011;9737;59.466;18.036;2022-07-01T03:01:40;39.25;;;24.13;;
19207;SDS011;9737;59.466;18.036;2022-07-01T03:04:10;43.55;;;24.23;;
19207;SDS011;9737;59.466;18.036;2022-07-01T03:06:38;41.33;;;24.92;;
19207;SDS011;9737;59.466;18.036;2022-07-01T03:09:07;40.95;;;25.25;;
19207;SDS011;9737;59.466;18.036;2022-07-01T03:11:35;39.10;;;22.55;;
19207;SDS011;9737;59.466;18.036;2022-07-01T03:14:03;42.22;;;23.17;;
19207;SDS011;9737;59.466;18.036;2022-07-01T03:16:32;38.95;;;22.52;;
19207;SDS011;9737;59.466;18.036;2022-07-01T03:19:00;38.70;;;21.83;;
19207;SDS011;9737;59.466;18.036;2022-07-01T03:21:30;38.25;;;22.05;;
19207;SDS011;9737;59.466;18.036;2022-07-01T03:23:58;44.67;;;23.30;;
19207;SDS011;9737;59.466;18.036;2022-07-01T03:26:27;37.90;;;22.20;;
19207;SDS011;9737;59.466;18.036;2022-07-01T03:29:01;36.83;;;22.08;;
19207;SDS011;9737;59.466;18.036;2022-07-01T03:31:30;38.33;;;21.95;;
19207;SDS011;9737;59.466;18.036;2022-07-01T03:33:58;37.35;;;21.58;;
19207;SDS011;9737;59.466;18.036;2022-07-01T03:36:26;37.72;;;22.23;;
19207;SDS011;9737;59.466;18.036;2022-07-01T03:38:56;39.92;;;22.10;;
19207;SDS011;9737;59.466;18.036;2022-07-01T03:41:24;35.67;;;22.08;;
19207;SDS011;9737;59.466;18.036;2022-07-01T03:43:52;40.65;;;23.35;;
19207;SDS011;9737;59.466;18.036;2022-07-01T03:46:26;39.63;;;22.27;;
19207;SDS011;9737;59.466;18.036;2022-07-01T03:48:57;43.00;;;23.50;;
19207;SDS011;9737;59.466;18.036;2022-07-01T03:51:26;42.90;;;23.55;;
19207;SDS011;9737;59.466;18.036;2022-07-01T03:53:55;48.72;;;24.50;;
19207;SDS011;9737;59.466;18.036;2022-07-01T03:56:41;41.20;;;23.50;;
19207;SDS011;9737;59.466;18.036;2022-07-01T03:59:09;37.25;;;23.65;;
19207;SDS011;9737;59.466;18.036;2022-07-01T04:01:37;41.58;;;21.65;;
19207;SDS011;9737;59.466;18.036;2022-07-01T04:04:06;35.03;;;21.67;;
19207;SDS011;9737;59.466;18.036;2022-07-01T04:06:34;33.00;;;21.25;;
19207;SDS011;9737;59.466;18.036;2022-07-01T04:09:03;29.67;;;18.83;;
19207;SDS011;9737;59.466;18.036;2022-07-01T04:11:32;36.35;;;21.02;;
19207;SDS011;9737;59.466;18.036;2022-07-01T04:14:01;34.22;;;19.48;;
19207;SDS011;9737;59.466;18.036;2022-07-01T04:16:38;36.63;;;19.52;;
19207;SDS011;9737;59.466;18.036;2022-07-01T04:19:13;36.38;;;20.67;;
19207;SDS011;9737;59.466;18.036;2022-07-01T04:21:41;27.10;;;18.63;;
19207;SDS011;9737;59.466;18.036;2022-07-01T04:24:29;38.20;;;20.85;;
19207;SDS011;9737;59.466;18.036;2022-07-01T04:26:58;34.58;;;21.13;;
19207;SDS011;9737;59.466;18.036;2022-07-01T04:29:46;31.00;;;19.67;;
19207;SDS011;9737;59.466;18.036;2022-07-01T04:32:31;29.45;;;18.60;;
19207;SDS011;9737;59.466;18.036;2022-07-01T04:35:19;32.92;;;18.80;;
19207;SDS011;9737;59.466;18.036;2022-07-01T04:37:50;35.67;;;19.17;;
19207;SDS011;9737;59.466;18.036;2022-07-01T04:40:22;30.33;;;19.02;;
19207;SDS011;9737;59.466;18.036;2022-07-01T04:42:51;27.83;;;17.15;;
19207;SDS011;9737;59.466;18.036;2022-07-01T04:45:18;25.00;;;15.20;;
19207;SDS011;9737;59.466;18.036;2022-07-01T04:47:46;22.40;;;13.77;;
19207;SDS011;9737;59.466;18.036;2022-07-01T04:50:14;21.45;;;12.02;;
19207;SDS011;9737;59.466;18.036;2022-07-01T04:52:44;23.23;;;11.68;;
19207;SDS011;9737;59.466;18.036;2022-07-01T04:55:13;17.70;;;10.75;;
19207;SDS011;9737;59.466;18.036;2022-07-01T04:57:43;20.63;;;10.50;;
19207;SDS011;9737;59.466;18.036;2022-07-01T05:00:11;20.98;;;10.35;;
19207;SDS011;9737;59.466;18.036;2022-07-01T05:02:40;15.38;;;9.35;;
19207;SDS011;9737;59.466;18.036;2022-07-01T05:05:11;27.33;;;10.88;;
19207;SDS011;9737;59.466;18.036;2022-07-01T05:07:39;16.63;;;10.52;;
19207;SDS011;9737;59.466;18.036;2022-07-01T05:10:07;19.35;;;10.43;;
19207;SDS011;9737;59.466;18.036;2022-07-01T05:12:36;17.45;;;10.45;;
19207;SDS011;9737;59.466;18.036;2022-07-01T05:15:06;20.55;;;10.40;;
19207;SDS011;9737;59.466;18.036;2022-07-01T05:17:35;19.00;;;10.32;;
19207;SDS011;9737;59.466;18.036;2022-07-01T05:20:20;19.15;;;10.57;;
19207;SDS011;9737;59.466;18.036;2022-07-01T05:23:06;19.80;;;10.27;;
19207;SDS011;9737;59.466;18.036;2022-07-01T05:25:36;18.73;;;10.82;;
19207;SDS011;9737;59.466;18.036;2022-07-01T05:28:14;20.85;;;10.48;;
19207;SDS011;9737;59.466;18.036;2022-07-01T05:30:44;18.52;;;10.45;;
19207;SDS011;9737;59.466;18.036;2022-07-01T05:33:12;20.95;;;10.50;;
19207;SDS011;9737;59.466;18.036;2022-07-01T05:35:40;27.35;;;12.18;;
19207;SDS011;9737;59.466;18.036;2022-07-01T05:38:09;25.75;;;10.38;;
19207;SDS011;9737;59.466;18.036;2022-07-01T05:40:37;19.70;;;10.65;;
19207;SDS011;9737;59.466;18.036;2022-07-01T05:43:05;16.70;;;9.10;;
19207;SDS011;9737;59.466;18.036;2022-07-01T05:45:34;21.95;;;10.25;;
19207;SDS011;9737;59.466;18.036;2022-07-01T05:48:03;18.67;;;10.13;;
19207;SDS011;9737;59.466;18.036;2022-07-01T05:50:32;19.42;;;9.93;;
19207;SDS011;9737;59.466;18.036;2022-07-01T05:53:00;19.77;;;9.23;;
19207;SDS011;9737;59.466;18.036;2022-07-01T05:55:28;19.95;;;10.60;;
19207;SDS011;9737;59.466;18.036;2022-07-01T05:57:56;21.00;;;10.27;;
19207;SDS011;9737;59.466;18.036;2022-07-01T06:00:25;18.92;;;9.57;;
19207;SDS011;9737;59.466;18.036;2022-07-01T06:02:53;17.58;;;9.23;;
19207;SDS011;9737;59.466;18.036;2022-07-01T06:05:29;22.33;;;10.15;;
19207;SDS011;9737;59.466;18.036;2022-07-01T06:07:57;22.55;;;9.85;;
19207;SDS011;9737;59.466;18.036;2022-07-01T06:10:28;26.05;;;10.52;;
19207;SDS011;9737;59.466;18.036;2022-07-01T06:12:56;18.30;;;9.18;;
19207;SDS011;9737;59.466;18.036;2022-07-01T06:15:24;20.40;;;9.35;;
19207;SDS011;9737;59.466;18.036;2022-07-01T06:17:53;22.88;;;9.85;;
19207;SDS011;9737;59.466;18.036;2022-07-01T06:20:24;20.58;;;9.10;;
19207;SDS011;9737;59.466;18.036;2022-07-01T06:22:54;15.15;;;8.82;;
19207;SDS011;9737;59.466;18.036;2022-07-01T06:25:24;24.65;;;8.98;;
19207;SDS011;9737;59.466;18.036;2022-07-01T06:27:52;16.73;;;8.88;;
19207;SDS011;9737;59.466;18.036;2022-07-01T06:30:20;17.25;;;9.95;;
19207;SDS011;9737;59.466;18.036;2022-07-01T06:32:48;21.35;;;10.73;;
19207;SDS011;9737;59.466;18.036;2022-07-01T06:35:21;20.67;;;10.52;;
19207;SDS011;9737;59.466;18.036;2022-07-01T06:37:50;19.63;;;10.25;;
19207;SDS011;9737;59.466;18.036;2022-07-01T06:40:25;24.25;;;11.77;;
19207;SDS011;9737;59.466;18.036;2022-07-01T06:42:54;21.88;;;11.32;;
19207;SDS011;9737;59.466;18.036;2022-07-01T06:45:22;28.27;;;11.10;;
19207;SDS011;9737;59.466;18.036;2022-07-01T06:47:50;21.25;;;10.43;;
19207;SDS011;9737;59.466;18.036;2022-07-01T06:50:19;24.23;;;11.00;;
19207;SDS011;9737;59.466;18.036;2022-07-01T06:52:47;29.27;;;11.52;;
19207;SDS011;9737;59.466;18.036;2022-07-01T06:55:15;19.73;;;10.45;;
19207;SDS011;9737;59.466;18.036;2022-07-01T06:57:45;27.60;;;11.38;;
19207;SDS011;9737;59.466;18.036;2022-07-01T07:00:14;19.98;;;10.13;;
19207;SDS011;9737;59.466;18.036;2022-07-01T07:02:42;21.90;;;9.15;;
19207;SDS011;9737;59.466;18.036;2022-07-01T07:05:10;18.88;;;9.68;;
19207;SDS011;9737;59.466;18.036;2022-07-01T07:07:39;22.98;;;9.50;;
19207;SDS011;9737;59.466;18.036;2022-07-01T07:10:07;23.20;;;9.52;;
19207;SDS011;9737;59.466;18.036;2022-07-01T07:12:36;23.08;;;9.65;;
19207;SDS011;9737;59.466;18.036;2022-07-01T07:15:06;19.98;;;8.73;;
19207;SDS011;9737;59.466;18.036;2022-07-01T07:17:36;20.90;;;9.23;;
19207;SDS011;9737;59.466;18.036;2022-07-01T07:20:05;20.95;;;9.45;;
19207;SDS011;9737;59.466;18.036;2022-07-01T07:22:34;25.63;;;9.73;;
19207;SDS011;9737;59.466;18.036;2022-07-01T07:25:02;15.27;;;7.50;;
19207;SDS011;9737;59.466;18.036;2022-07-01T07:27:31;18.20;;;7.55;;
19207;SDS011;9737;59.466;18.036;2022-07-01T07:30:00;17.67;;;7.47;;
19207;SDS011;9737;59.466;18.036;2022-07-01T07:32:31;16.42;;;6.25;;
19207;SDS011;9737;59.466;18.036;2022-07-01T07:34:59;8.95;;;5.53;;
19207;SDS011;9737;59.466;18.036;2022-07-01T07:37:27;10.25;;;5.50;;
19207;SDS011;9737;59.466;18.036;2022-07-01T07:39:58;12.90;;;5.65;;
19207;SDS011;9737;59.466;18.036;2022-07-01T07:42:27;10.02;;;5.53;;
19207;SDS011;9737;59.466;18.036;2022-07-01T07:44:55;9.70;;;5.30;;
19207;SDS011;9737;59.466;18.036;2022-07-01T07:47:23;9.85;;;5.32;;
19207;SDS011;9737;59.466;18.036;2022-07-01T07:49:54;9.52;;;5.70;;
19207;SDS011;9737;59.466;18.036;2022-07-01T07:52:22;9.70;;;6.35;;
19207;SDS011;9737;59.466;18.036;2022-07-01T07:54:50;11.15;;;6.90;;
19207;SDS011;9737;59.466;18.036;2022-07-01T07:57:18;21.95;;;9.27;;
19207;SDS011;9737;59.466;18.036;2022-07-01T07:59:46;23.80;;;9.77;;
19207;SDS011;9737;59.466;18.036;2022-07-01T08:02:15;21.83;;;9.95;;
19207;SDS011;9737;59.466;18.036;2022-07-01T08:04:50;23.15;;;10.48;;
19207;SDS011;9737;59.466;18.036;2022-07-01T08:07:21;29.98;;;12.75;;
19207;SDS011;9737;59.466;18.036;2022-07-01T08:09:50;26.20;;;12.18;;
19207;SDS011;9737;59.466;18.036;2022-07-01T08:12:18;25.77;;;12.55;;
19207;SDS011;9737;59.466;18.036;2022-07-01T08:14:46;28.95;;;12.35;;
19207;SDS011;9737;59.466;18.036;2022-07-01T08:17:14;29.23;;;12.73;;
19207;SDS011;9737;59.466;18.036;2022-07-01T08:19:42;30.58;;;12.70;;
19207;SDS011;9737;59.466;18.036;2022-07-01T08:22:10;29.17;;;13.20;;
19207;SDS011;9737;59.466;18.036;2022-07-01T08:24:40;24.50;;;12.35;;
19207;SDS011;9737;59.466;18.036;2022-07-01T08:27:08;26.77;;;12.20;;
19207;SDS011;9737;59.466;18.036;2022-07-01T08:29:38;28.10;;;12.77;;
19207;SDS011;9737;59.466;18.036;2022-07-01T08:32:06;28.63;;;12.25;;
19207;SDS011;9737;59.466;18.036;2022-07-01T08:34:35;30.08;;;12.15;;
19207;SDS011;9737;59.466;18.036;2022-07-01T08:37:03;27.58;;;12.13;;
19207;SDS011;9737;59.466;18.036;2022-07-01T08:39:33;33.60;;;12.73;;
19207;SDS011;9737;59.466;18.036;2022-07-01T08:42:03;31.27;;;12.20;;
19207;SDS011;9737;59.466;18.036;2022-07-01T08:44:34;27.25;;;13.25;;
19207;SDS011;9737;59.466;18.036;2022-07-01T08:47:03;24.15;;;12.95;;
19207;SDS011;9737;59.466;18.036;2022-07-01T08:49:32;26.38;;;11.52;;
19207;SDS011;9737;59.466;18.036;2022-07-01T08:52:01;23.88;;;10.65;;
19207;SDS011;9737;59.466;18.036;2022-07-01T08:54:29;22.50;;;10.25;;
19207;SDS011;9737;59.466;18.036;2022-07-01T08:56:57;26.48;;;11.02;;
19207;SDS011;9737;59.466;18.036;2022-07-01T08:59:27;23.17;;;11.50;;
19207;SDS011;9737;59.466;18.036;2022-07-01T09:01:58;35.63;;;11.00;;
19207;SDS011;9737;59.466;18.036;2022-07-01T09:04:28;23.95;;;10.27;;
19207;SDS011;9737;59.466;18.036;2022-07-01T09:07:00;20.80;;;10.43;;
19207;SDS011;9737;59.466;18.036;2022-07-01T09:09:33;25.65;;;10.68;;
19207;SDS011;9737;59.466;18.036;2022-07-01T09:12:03;24.83;;;10.82;;
19207;SDS011;9737;59.466;18.036;2022-07-01T09:14:34;22.70;;;11.20;;
19207;SDS011;9737;59.466;18.036;2022-07-01T09:17:04;22.88;;;10.95;;
19207;SDS011;9737;59.466;18.036;2022-07-01T09:19:34;28.98;;;11.20;;
19207;SDS011;9737;59.466;18.036;2022-07-01T09:22:09;23.48;;;11.65;;
19207;SDS011;9737;59.466;18.036;2022-07-01T09:24:38;24.75;;;10.65;;
19207;SDS011;9737;59.466;18.036;2022-07-01T09:27:09;23.85;;;11.15;;
19207;SDS011;9737;59.466;18.036;2022-07-01T09:29:42;26.40;;;11.07;;
19207;SDS011;9737;59.466;18.036;2022-07-01T09:32:12;23.98;;;11.02;;
19207;SDS011;9737;59.466;18.036;2022-07-01T09:34:44;24.73;;;11.10;;
19207;SDS011;9737;59.466;18.036;2022-07-01T09:37:14;23.90;;;11.98;;
19207;SDS011;9737;59.466;18.036;2022-07-01T09:39:43;22.67;;;10.88;;
19207;SDS011;9737;59.466;18.036;2022-07-01T09:42:16;22.02;;;10.88;;
19207;SDS011;9737;59.466;18.036;2022-07-01T09:44:53;24.63;;;11.52;;
19207;SDS011;9737;59.466;18.036;2022-07-01T09:47:29;27.83;;;11.57;;
19207;SDS011;9737;59.466;18.036;2022-07-01T09:49:58;22.42;;;11.20;;
19207;SDS011;9737;59.466;18.036;2022-07-01T09:52:27;24.02;;;11.20;;
19207;SDS011;9737;59.466;18.036;2022-07-01T09:55:02;28.90;;;10.90;;
19207;SDS011;9737;59.466;18.036;2022-07-01T09:57:32;21.20;;;10.48;;
19207;SDS011;9737;59.466;18.036;2022-07-01T10:00:02;23.10;;;10.70;;
19207;SDS011;9737;59.466;18.036;2022-07-01T10:02:31;18.30;;;9.50;;
19207;SDS011;9737;59.466;18.036;2022-07-01T10:05:02;27.80;;;10.00;;
19207;SDS011;9737;59.466;18.036;2022-07-01T10:07:42;18.13;;;9.80;;
19207;SDS011;9737;59.466;18.036;2022-07-01T10:10:30;25.23;;;9.13;;
19207;SDS011;9737;59.466;18.036;2022-07-01T10:13:11;22.27;;;10.40;;
19207;SDS011;9737;59.466;18.036;2022-07-01T10:15:45;20.70;;;9.70;;
19207;SDS011;9737;59.466;18.036;2022-07-01T10:18:20;18.35;;;9.75;;
19207;SDS011;9737;59.466;18.036;2022-07-01T10:20:55;15.27;;;9.85;;
19207;SDS011;9737;59.466;18.036;2022-07-01T10:24:13;22.30;;;9.57;;
19207;SDS011;9737;59.466;18.036;2022-07-01T10:26:43;15.70;;;9.45;;
19207;SDS011;9737;59.466;18.036;2022-07-01T10:29:29;18.85;;;10.10;;
19207;SDS011;9737;59.466;18.036;2022-07-01T10:32:00;20.83;;;9.85;;
19207;SDS011;9737;59.466;18.036;2022-07-01T10:34:34;16.02;;;9.88;;
19207;SDS011;9737;59.466;18.036;2022-07-01T10:37:16;19.58;;;10.23;;
19207;SDS011;9737;59.466;18.036;2022-07-01T10:39:56;25.90;;;11.45;;
19207;SDS011;9737;59.466;18.036;2022-07-01T10:42:29;20.58;;;10.40;;
19207;SDS011;9737;59.466;18.036;2022-07-01T10:45:00;24.67;;;10.52;;
19207;SDS011;9737;59.466;18.036;2022-07-01T10:47:34;15.52;;;10.35;;
19207;SDS011;9737;59.466;18.036;2022-07-01T10:50:04;19.08;;;10.32;;
19207;SDS011;9737;59.466;18.036;2022-07-01T10:52:34;158.45;;;31.88;;
19207;SDS011;9737;59.466;18.036;2022-07-01T10:55:03;49.88;;;16.23;;
19207;SDS011;9737;59.466;18.036;2022-07-01T10:57:39;22.38;;;10.50;;
19207;SDS011;9737;59.466;18.036;2022-07-01T11:03:10;20.60;;;10.63;;
19207;SDS011;9737;59.466;18.036;2022-07-01T11:09:52;23.02;;;10.80;;
19207;SDS011;9737;59.466;18.036;2022-07-01T11:15:19;19.00;;;11.25;;
19207;SDS011;9737;59.466;18.036;2022-07-01T11:17:50;18.92;;;10.57;;
19207;SDS011;9737;59.466;18.036;2022-07-01T11:20:35;22.52;;;11.23;;
19207;SDS011;9737;59.466;18.036;2022-07-01T11:23:11;18.02;;;11.10;;
19207;SDS011;9737;59.466;18.036;2022-07-01T11:28:28;25.00;;;12.05;;
19207;SDS011;9737;59.466;18.036;2022-07-01T11:31:27;22.48;;;12.07;;
19207;SDS011;9737;59.466;18.036;2022-07-01T11:33:57;25.77;;;12.05;;
19207;SDS011;9737;59.466;18.036;2022-07-01T11:36:27;25.30;;;12.10;;
19207;SDS011;9737;59.466;18.036;2022-07-01T11:39:22;23.25;;;11.75;;
19207;SDS011;9737;59.466;18.036;2022-07-01T11:41:54;20.92;;;11.23;;
19207;SDS011;9737;59.466;18.036;2022-07-01T11:44:31;22.77;;;12.07;;
19207;SDS011;9737;59.466;18.036;2022-07-01T11:47:03;22.67;;;12.20;;
19207;SDS011;9737;59.466;18.036;2022-07-01T11:49:47;21.58;;;11.88;;
19207;SDS011;9737;59.466;18.036;2022-07-01T11:52:20;22.75;;;11.68;;
19207;SDS011;9737;59.466;18.036;2022-07-01T11:54:50;19.77;;;11.15;;
19207;SDS011;9737;59.466;18.036;2022-07-01T11:57:22;20.02;;;11.00;;
19207;SDS011;9737;59.466;18.036;2022-07-01T11:59:55;20.75;;;11.38;;
19207;SDS011;9737;59.466;18.036;2022-07-01T12:02:38;19.30;;;11.02;;
19207;SDS011;9737;59.466;18.036;2022-07-01T12:05:07;17.95;;;10.07;;
19207;SDS011;9737;59.466;18.036;2022-07-01T12:07:53;21.77;;;10.63;;
19207;SDS011;9737;59.466;18.036;2022-07-01T12:13:24;23.05;;;10.30;;
19207;SDS011;9737;59.466;18.036;2022-07-01T12:16:05;22.25;;;10.40;;
19207;SDS011;9737;59.466;18.036;2022-07-01T12:18:37;18.00;;;10.73;;
19207;SDS011;9737;59.466;18.036;2022-07-01T12:21:15;20.60;;;10.45;;
19207;SDS011;9737;59.466;18.036;2022-07-01T12:27:19;21.15;;;11.30;;
19207;SDS011;9737;59.466;18.036;2022-07-01T12:30:58;19.63;;;10.70;;
19207;SDS011;9737;59.466;18.036;2022-07-01T12:33:33;24.52;;;11.45;;
19207;SDS011;9737;59.466;18.036;2022-07-01T12:36:11;19.23;;;10.75;;
19207;SDS011;9737;59.466;18.036;2022-07-01T12:39:00;17.95;;;10.27;;
19207;SDS011;9737;59.466;18.036;2022-07-01T12:41:32;23.83;;;11.02;;
19207;SDS011;9737;59.466;18.036;2022-07-01T12:44:19;19.38;;;10.50;;
19207;SDS011;9737;59.466;18.036;2022-07-01T12:46:54;24.38;;;10.88;;
19207;SDS011;9737;59.466;18.036;2022-07-01T12:49:27;21.63;;;9.63;;
19207;SDS011;9737;59.466;18.036;2022-07-01T12:52:00;16.73;;;8.75;;
19207;SDS011;9737;59.466;18.036;2022-07-01T12:57:31;14.73;;;8.73;;
19207;SDS011;9737;59.466;18.036;2022-07-01T13:00:05;15.52;;;9.18;;
19207;SDS011;9737;59.466;18.036;2022-07-01T13:02:33;15.65;;;8.60;;
19207;SDS011;9737;59.466;18.036;2022-07-01T13:05:02;17.13;;;8.43;;
19207;SDS011;9737;59.466;18.036;2022-07-01T13:07:35;12.60;;;8.18;;
19207;SDS011;9737;59.466;18.036;2022-07-01T13:10:14;15.27;;;8.18;;
19207;SDS011;9737;59.466;18.036;2022-07-01T13:15:33;14.57;;;8.30;;
19207;SDS011;9737;59.466;18.036;2022-07-01T13:18:01;14.25;;;7.28;;
19207;SDS011;9737;59.466;18.036;2022-07-01T13:20:35;15.93;;;7.90;;
19207;SDS011;9737;59.466;18.036;2022-07-01T13:23:05;14.45;;;8.57;;
19207;SDS011;9737;59.466;18.036;2022-07-01T13:25:33;16.02;;;8.15;;
19207;SDS011;9737;59.466;18.036;2022-07-01T13:28:05;11.90;;;8.07;;
19207;SDS011;9737;59.466;18.036;2022-07-01T13:30:33;13.52;;;8.55;;
19207;SDS011;9737;59.466;18.036;2022-07-01T13:37:31;16.58;;;8.98;;
19207;SDS011;9737;59.466;18.036;2022-07-01T13:39:59;14.45;;;8.85;;
19207;SDS011;9737;59.466;18.036;2022-07-01T13:42:30;17.20;;;9.25;;
19207;SDS011;9737;59.466;18.036;2022-07-01T13:45:08;18.00;;;9.65;;
19207;SDS011;9737;59.466;18.036;2022-07-01T13:47:40;15.05;;;9.13;;
19207;SDS011;9737;59.466;18.036;2022-07-01T13:50:14;17.35;;;8.82;;
19207;SDS011;9737;59.466;18.036;2022-07-01T13:52:48;14.93;;;8.70;;
19207;SDS011;9737;59.466;18.036;2022-07-01T13:55:23;13.32;;;8.02;;
19207;SDS011;9737;59.466;18.036;2022-07-01T13:57:54;14.70;;;7.25;;
19207;SDS011;9737;59.466;18.036;2022-07-01T14:00:23;14.20;;;7.38;;
19207;SDS011;9737;59.466;18.036;2022-07-01T14:02:52;10.18;;;7.30;;
19207;SDS011;9737;59.466;18.036;2022-07-01T14:05:20;12.15;;;7.28;;
19207;SDS011;9737;59.466;18.036;2022-07-01T14:07:49;12.70;;;7.68;;
19207;SDS011;9737;59.466;18.036;2022-07-01T14:10:18;11.60;;;7.50;;
19207;SDS011;9737;59.466;18.036;2022-07-01T14:12:46;12.10;;;7.10;;
19207;SDS011;9737;59.466;18.036;2022-07-01T14:15:14;13.70;;;6.93;;
19207;SDS011;9737;59.466;18.036;2022-07-01T14:17:44;11.30;;;6.85;;
19207;SDS011;9737;59.466;18.036;2022-07-01T14:20:13;12.40;;;6.88;;
19207;SDS011;9737;59.466;18.036;2022-07-01T14:22:49;8.85;;;6.43;;
19207;SDS011;9737;59.466;18.036;2022-07-01T14:25:26;11.25;;;6.95;;
19207;SDS011;9737;59.466;18.036;2022-07-01T14:27:55;12.75;;;7.22;;
19207;SDS011;9737;59.466;18.036;2022-07-01T14:30:23;14.15;;;7.65;;
19207;SDS011;9737;59.466;18.036;2022-07-01T14:32:53;14.20;;;7.40;;
19207;SDS011;9737;59.466;18.036;2022-07-01T14:35:24;14.98;;;8.23;;
19207;SDS011;9737;59.466;18.036;2022-07-01T14:38:58;12.27;;;7.38;;
19207;SDS011;9737;59.466;18.036;2022-07-01T14:41:30;15.00;;;7.70;;
19207;SDS011;9737;59.466;18.036;2022-07-01T14:43:59;17.65;;;8.65;;
19207;SDS011;9737;59.466;18.036;2022-07-01T14:46:28;16.75;;;8.02;;
19207;SDS011;9737;59.466;18.036;2022-07-01T14:48:58;11.75;;;7.45;;
19207;SDS011;9737;59.466;18.036;2022-07-01T14:51:27;15.05;;;8.48;;
19207;SDS011;9737;59.466;18.036;2022-07-01T14:53:58;14.18;;;7.88;;
19207;SDS011;9737;59.466;18.036;2022-07-01T14:56:26;11.20;;;7.13;;
19207;SDS011;9737;59.466;18.036;2022-07-01T14:58:55;10.93;;;8.00;;
19207;SDS011;9737;59.466;18.036;2022-07-01T15:01:23;14.07;;;8.13;;
19207;SDS011;9737;59.466;18.036;2022-07-01T15:03:52;16.02;;;7.35;;
19207;SDS011;9737;59.466;18.036;2022-07-01T15:06:29;13.88;;;7.80;;
19207;SDS011;9737;59.466;18.036;2022-07-01T15:08:57;11.88;;;7.97;;
19207;SDS011;9737;59.466;18.036;2022-07-01T15:11:26;12.77;;;7.70;;
19207;SDS011;9737;59.466;18.036;2022-07-01T15:13:59;12.95;;;7.32;;
19207;SDS011;9737;59.466;18.036;2022-07-01T15:16:29;11.75;;;7.78;;
19207;SDS011;9737;59.466;18.036;2022-07-01T15:19:01;11.20;;;7.22;;